Time;durP1;ratioP1;P1;durP2;ratioP2;P2;SDS_P1;SDS_P2;PMS_P1;PMS_P2;Temp;Humidity;BMP_temperature;BMP_pressure;BME280_temperature;BME280_humidity;BME280_pressure;Samples;Min_cycle;Max_cycle;Signal;HPM_P1;HPM_P2
2023/06/16 00:00:43;;;;;;;;;;;24.50;42.60;;;;;;5074358;28;20006;-94
2023/06/16 00:03:09;;;;;;;;;;;24.50;42.60;;;;;;5074668;28;19921;-94
2023/06/16 00:05:35;;;;;;;;;;;24.50;42.70;;;;;;5074476;28;19924;-94
2023/06/16 00:08:03;;;;;;;;;;;24.50;42.70;;;;;;5074440;28;20077;-94
2023/06/16 00:10:29;;;;;;;;;;;24.50;42.70;;;;;;5074252;28;19921;-95
2023/06/16 00:12:54;;;;;;;;;;;24.50;42.70;;;;;;5074335;28;19971;-94
2023/06/16 00:15:20;;;;;;;;;;;24.40;42.70;;;;;;5073720;28;20401;-94
2023/06/16 00:17:46;;;;;;;;;;;24.40;42.60;;;;;;5074102;28;20046;-94
2023/06/16 00:20:13;;;;;;;;;;;24.40;42.70;;;;;;5074134;28;20078;-94
2023/06/16 00:22:39;;;;;;;;;;;24.50;42.80;;;;;;5074341;28;20477;-94
2023/06/16 00:25:05;;;;;;;;;;;24.40;42.70;;;;;;5073994;28;20028;-94
2023/06/16 00:27:31;;;;;;;;;;;24.30;42.60;;;;;;5074120;28;19960;-94
2023/06/16 00:29:56;;;;;;;;;;;24.40;42.70;;;;;;5063500;28;19940;-94
2023/06/16 00:32:22;;;;;;;;;;;24.30;42.70;;;;;;5053638;28;19920;-94
2023/06/16 00:34:47;;;;;;;;;;;24.30;42.70;;;;;;5053509;28;19920;-93
2023/06/16 00:37:13;;;;;;;;;;;24.30;42.70;;;;;;5053646;28;19921;-94
2023/06/16 00:39:38;;;;;;;;;;;24.30;42.70;;;;;;5053879;28;19964;-94
2023/06/16 00:42:04;;;;;;;;;;;24.30;42.70;;;;;;5053961;28;20027;-93
2023/06/16 00:44:30;;;;;;;;;;;24.30;42.80;;;;;;5053787;28;19921;-93
2023/06/16 00:46:55;;;;;;;;;;;24.20;42.70;;;;;;5053866;28;20372;-92
2023/06/16 00:49:21;;;;;;;;;;;24.20;42.80;;;;;;5053999;28;20373;-94
2023/06/16 00:51:48;;;;;;;;;;;24.30;42.90;;;;;;5053795;28;19944;-94
2023/06/16 00:54:13;;;;;;;;;;;24.30;42.90;;;;;;5053494;28;19944;-94
2023/06/16 00:56:41;;;;;;;;;;;24.20;42.80;;;;;;5053376;28;20377;-94
2023/06/16 00:59:06;;;;;;;;;;;24.20;42.80;;;;;;5053328;28;19966;-94
2023/06/16 01:01:34;;;;;;;;;;;24.20;42.90;;;;;;5053445;28;19925;-94
2023/06/16 01:04:00;;;;;;;;;;;24.20;42.90;;;;;;5053297;28;19921;-95
2023/06/16 01:09:15;;;;;;;;;;;24.20;42.90;;;;;;5110388;27;19919;-62
2023/06/16 01:11:43;;;;;;;;;;;24.10;42.90;;;;;;5108997;28;19999;-61
2023/06/16 01:14:14;;;;;;;;;;;24.10;42.90;;;;;;5109114;28;20015;-62
2023/06/16 01:16:42;;;;;;;;;;;24.10;42.90;;;;;;5108805;28;19926;-61
2023/06/16 01:19:09;;;;;;;;;;;24.10;43.00;;;;;;5108846;28;19924;-62
2023/06/16 01:24:23;;;;;;;;;;;24.10;43.00;;;;;;5110165;27;19919;-61
2023/06/16 01:26:51;;;;;;;;;;;24.10;43.00;;;;;;5109051;28;19920;-62
2023/06/16 01:29:17;;;;;;;;;;;24.10;43.00;;;;;;5109176;28;20018;-62
2023/06/16 01:31:44;;;;;;;;;;;24.10;43.10;;;;;;5110208;28;20429;-63
2023/06/16 01:34:10;;;;;;;;;;;24.00;43.00;;;;;;5108514;28;19920;-62
2023/06/16 01:36:37;;;;;;;;;;;24.00;43.00;;;;;;5108899;28;19920;-62
2023/06/16 01:39:03;;;;;;;;;;;24.00;43.10;;;;;;5143301;27;20248;-62
2023/06/16 01:41:28;;;;;;;;;;;24.00;43.10;;;;;;5110264;28;19927;-61
2023/06/16 01:43:54;;;;;;;;;;;24.00;43.10;;;;;;5108591;28;19972;-62
2023/06/16 01:46:20;;;;;;;;;;;24.00;43.10;;;;;;5108948;28;20037;-62
2023/06/16 01:48:45;;;;;;;;;;;23.90;43.00;;;;;;5110141;28;20359;-63
2023/06/16 01:51:11;;;;;;;;;;;23.90;43.10;;;;;;5109845;28;19969;-61
2023/06/16 01:53:37;;;;;;;;;;;23.90;43.10;;;;;;5108306;28;19920;-62
2023/06/16 01:56:02;;;;;;;;;;;23.90;43.20;;;;;;5109467;28;20361;-62
2023/06/16 01:58:28;;;;;;;;;;;23.90;43.10;;;;;;5109731;28;20402;-64
2023/06/16 02:00:57;;;;;;;;;;;23.90;43.20;;;;;;5108262;28;19927;-62
2023/06/16 02:03:26;;;;;;;;;;;23.90;43.10;;;;;;5109624;28;19924;-63
2023/06/16 02:05:51;;;;;;;;;;;23.90;43.20;;;;;;5108548;28;19995;-61
2023/06/16 02:08:18;;;;;;;;;;;23.90;43.20;;;;;;5108556;28;19967;-62
2023/06/16 02:10:44;;;;;;;;;;;23.80;43.20;;;;;;5108036;28;19970;-61
2023/06/16 02:13:10;;;;;;;;;;;23.80;43.20;;;;;;5108335;28;20374;-62
2023/06/16 02:15:36;;;;;;;;;;;23.80;43.20;;;;;;5108059;28;19920;-62
2023/06/16 02:18:02;;;;;;;;;;;23.80;43.20;;;;;;5109306;28;19920;-62
2023/06/16 02:20:28;;;;;;;;;;;23.80;43.20;;;;;;5108317;28;19920;-62
2023/06/16 02:22:53;;;;;;;;;;;23.80;43.30;;;;;;5107621;28;19968;-62
2023/06/16 02:25:19;;;;;;;;;;;23.80;43.30;;;;;;5107693;28;19970;-63
2023/06/16 02:27:45;;;;;;;;;;;23.80;43.30;;;;;;5107877;28;19961;-61
2023/06/16 02:30:11;;;;;;;;;;;23.70;43.30;;;;;;5107716;28;19924;-62
2023/06/16 02:32:37;;;;;;;;;;;23.70;43.30;;;;;;5107670;28;19920;-65
2023/06/16 02:35:04;;;;;;;;;;;23.70;43.40;;;;;;5097341;28;20293;-62
2023/06/16 02:37:29;;;;;;;;;;;23.70;43.30;;;;;;5095259;28;19920;-62
2023/06/16 02:39:55;;;;;;;;;;;23.70;43.30;;;;;;5094318;28;19973;-62
2023/06/16 02:42:20;;;;;;;;;;;23.70;43.40;;;;;;5094147;28;20374;-62
2023/06/16 02:44:46;;;;;;;;;;;23.70;43.40;;;;;;5094000;28;19927;-62
2023/06/16 02:47:11;;;;;;;;;;;23.70;43.40;;;;;;5095246;28;19920;-62
2023/06/16 02:49:42;;;;;;;;;;;23.70;43.40;;;;;;5095229;28;19973;-62
2023/06/16 02:52:10;;;;;;;;;;;23.60;43.40;;;;;;5095107;28;20294;-62
2023/06/16 02:54:36;;;;;;;;;;;23.60;43.40;;;;;;5094596;28;19920;-62
2023/06/16 02:57:02;;;;;;;;;;;23.60;43.40;;;;;;5093774;28;19981;-61
2023/06/16 02:59:27;;;;;;;;;;;23.60;43.40;;;;;;5093590;28;19927;-61
2023/06/16 03:01:53;;;;;;;;;;;23.60;43.40;;;;;;5094870;28;19974;-62
2023/06/16 03:04:18;;;;;;;;;;;23.60;43.50;;;;;;5093844;28;20019;-62
2023/06/16 03:06:44;;;;;;;;;;;23.60;43.50;;;;;;5094763;28;20007;-63
2023/06/16 03:09:11;;;;;;;;;;;23.60;43.50;;;;;;5093419;28;19970;-61
2023/06/16 03:11:37;;;;;;;;;;;23.60;43.50;;;;;;5094638;28;19931;-62
2023/06/16 03:14:02;;;;;;;;;;;23.60;43.50;;;;;;5093464;28;19920;-62
2023/06/16 03:16:28;;;;;;;;;;;23.50;43.50;;;;;;5093043;28;19927;-61
2023/06/16 03:18:54;;;;;;;;;;;23.60;43.60;;;;;;5094527;28;19924;-61
2023/06/16 03:21:20;;;;;;;;;;;23.60;43.60;;;;;;5094514;28;19965;-62
2023/06/16 03:23:46;;;;;;;;;;;23.50;43.60;;;;;;5092855;28;19979;-62
2023/06/16 03:26:12;;;;;;;;;;;23.50;43.60;;;;;;5093029;28;20467;-61
2023/06/16 03:28:38;;;;;;;;;;;23.50;43.60;;;;;;5094269;28;19920;-62
2023/06/16 03:31:04;;;;;;;;;;;23.50;43.70;;;;;;5093240;28;19926;-62
2023/06/16 03:33:31;;;;;;;;;;;23.50;43.70;;;;;;5093100;28;20294;-62
2023/06/16 03:35:57;;;;;;;;;;;23.50;43.70;;;;;;5092921;28;19920;-61
2023/06/16 03:38:22;;;;;;;;;;;23.50;43.70;;;;;;5092951;28;19970;-61
2023/06/16 03:40:48;;;;;;;;;;;23.50;43.80;;;;;;5094079;28;19920;-62
2023/06/16 03:43:13;;;;;;;;;;;23.50;43.80;;;;;;5094062;28;19975;-62
2023/06/16 03:45:39;;;;;;;;;;;23.50;43.80;;;;;;5126362;27;19920;-62
2023/06/16 03:48:05;;;;;;;;;;;23.50;43.80;;;;;;5126982;27;19924;-62
2023/06/16 03:50:31;;;;;;;;;;;23.50;43.80;;;;;;5093970;28;19924;-61
2023/06/16 03:52:57;;;;;;;;;;;23.50;43.80;;;;;;5093914;28;19920;-62
2023/06/16 03:55:23;;;;;;;;;;;23.40;43.80;;;;;;5092210;28;20400;-62
2023/06/16 03:57:48;;;;;;;;;;;23.40;43.80;;;;;;5094097;28;19924;-61
2023/06/16 04:00:14;;;;;;;;;;;23.40;43.80;;;;;;5092508;28;19974;-61
2023/06/16 04:02:41;;;;;;;;;;;23.40;43.80;;;;;;5093756;28;20019;-62
2023/06/16 04:05:08;;;;;;;;;;;23.40;43.90;;;;;;5092406;28;19920;-62
2023/06/16 04:07:34;;;;;;;;;;;23.40;43.90;;;;;;5093798;28;19955;-62
2023/06/16 04:09:59;;;;;;;;;;;23.50;44.00;;;;;;5093506;28;19949;-62
2023/06/16 04:12:25;;;;;;;;;;;23.40;44.00;;;;;;5092481;28;19920;-61
2023/06/16 04:14:51;;;;;;;;;;;23.40;44.00;;;;;;5093340;28;19924;-61
2023/06/16 04:17:16;;;;;;;;;;;23.40;44.80;;;;;;5093249;28;19920;-62
2023/06/16 04:19:43;;;;;;;;;;;23.40;44.00;;;;;;5092327;28;19963;-61
2023/06/16 04:22:08;;;;;;;;;;;23.40;44.10;;;;;;5094580;28;19928;-61
2023/06/16 04:24:34;;;;;;;;;;;23.40;44.10;;;;;;5095327;28;19924;-61
2023/06/16 04:27:02;;;;;;;;;;;23.40;44.10;;;;;;5113496;28;19973;-62
2023/06/16 04:29:28;;;;;;;;;;;23.40;44.10;;;;;;5095243;28;20494;-61
2023/06/16 04:31:59;;;;;;;;;;;23.40;44.10;;;;;;5095613;28;19920;-61
2023/06/16 04:34:25;;;;;;;;;;;23.40;44.10;;;;;;5095394;28;20285;-62
2023/06/16 04:36:51;;;;;;;;;;;23.40;44.20;;;;;;5095147;28;19924;-62
2023/06/16 04:39:16;;;;;;;;;;;23.30;44.10;;;;;;5095119;28;19988;-62
2023/06/16 04:41:42;;;;;;;;;;;23.40;44.20;;;;;;5095062;28;20014;-62
2023/06/16 04:44:08;;;;;;;;;;;23.30;44.20;;;;;;5095096;28;19941;-62
2023/06/16 04:46:34;;;;;;;;;;;23.30;44.20;;;;;;5095269;28;19972;-62
2023/06/16 04:48:59;;;;;;;;;;;23.30;44.20;;;;;;5095317;28;19966;-62
2023/06/16 04:51:26;;;;;;;;;;;23.30;44.20;;;;;;5095021;28;19972;-61
2023/06/16 04:53:52;;;;;;;;;;;23.30;44.30;;;;;;5095189;28;20406;-62
2023/06/16 04:56:17;;;;;;;;;;;23.30;44.30;;;;;;5094937;28;20022;-62
2023/06/16 04:58:43;;;;;;;;;;;23.30;44.30;;;;;;5094461;28;20412;-62
2023/06/16 05:01:08;;;;;;;;;;;23.30;44.40;;;;;;5094737;28;19919;-62
2023/06/16 05:03:34;;;;;;;;;;;23.20;44.40;;;;;;5113148;28;19927;-62
2023/06/16 05:05:59;;;;;;;;;;;23.30;44.40;;;;;;5095086;28;19928;-62
2023/06/16 05:08:25;;;;;;;;;;;23.30;44.50;;;;;;5113080;28;19927;-61
2023/06/16 05:10:50;;;;;;;;;;;23.20;44.40;;;;;;5094589;28;20004;-62
2023/06/16 05:13:16;;;;;;;;;;;23.20;44.50;;;;;;5094764;28;19966;-62
2023/06/16 05:15:41;;;;;;;;;;;23.20;44.50;;;;;;5112874;28;20282;-61
2023/06/16 05:18:06;;;;;;;;;;;23.20;44.50;;;;;;5094447;28;20026;-62
2023/06/16 05:20:32;;;;;;;;;;;23.20;44.50;;;;;;5094867;28;19949;-61
2023/06/16 05:22:58;;;;;;;;;;;23.20;44.60;;;;;;5112443;28;19973;-61
2023/06/16 05:25:24;;;;;;;;;;;23.20;44.70;;;;;;5110153;28;19919;-61
2023/06/16 05:27:49;;;;;;;;;;;23.20;44.80;;;;;;5113034;28;20283;-61
2023/06/16 05:30:15;;;;;;;;;;;23.20;44.90;;;;;;5094718;28;19972;-61
2023/06/16 05:32:40;;;;;;;;;;;23.20;45.30;;;;;;5092545;28;19930;-61
2023/06/16 05:35:07;;;;;;;;;;;23.20;45.80;;;;;;5093729;28;19962;-61
2023/06/16 05:37:32;;;;;;;;;;;23.30;46.10;;;;;;5093736;28;19963;-61
2023/06/16 05:39:58;;;;;;;;;;;23.30;46.40;;;;;;5111043;28;19973;-61
2023/06/16 05:42:23;;;;;;;;;;;23.30;46.40;;;;;;5094467;28;19924;-60
2023/06/16 05:44:49;;;;;;;;;;;23.30;46.80;;;;;;5093066;28;20290;-61
2023/06/16 05:47:14;;;;;;;;;;;23.40;47.30;;;;;;5094296;28;19967;-61
2023/06/16 05:49:40;;;;;;;;;;;23.30;47.30;;;;;;5093906;28;19923;-63
2023/06/16 05:52:06;;;;;;;;;;;23.40;48.00;;;;;;5094054;28;19920;-63
2023/06/16 05:54:32;;;;;;;;;;;23.30;48.00;;;;;;5093808;28;19919;-63
2023/06/16 05:56:57;;;;;;;;;;;23.30;48.10;;;;;;5112184;28;19965;-64
2023/06/16 05:59:24;;;;;;;;;;;23.30;48.40;;;;;;5091452;28;19924;-63
2023/06/16 06:01:49;;;;;;;;;;;23.30;48.50;;;;;;5111294;28;20285;-63
2023/06/16 06:04:15;;;;;;;;;;;23.30;48.80;;;;;;5091567;28;20010;-62
2023/06/16 06:06:40;;;;;;;;;;;23.30;49.10;;;;;;5091081;28;20343;-62
2023/06/16 06:09:06;;;;;;;;;;;23.30;49.30;;;;;;5108137;28;20289;-63
2023/06/16 06:11:31;;;;;;;;;;;23.20;49.40;;;;;;5106991;28;19924;-62
2023/06/16 06:13:57;;;;;;;;;;;23.30;48.80;;;;;;5104645;28;20036;-62
2023/06/16 06:16:23;;;;;;;;;;;23.30;49.70;;;;;;5081595;28;19919;-64
2023/06/16 06:18:49;;;;;;;;;;;23.30;49.60;;;;;;5103990;28;19919;-64
2023/06/16 06:21:15;;;;;;;;;;;23.30;49.60;;;;;;5082808;28;19953;-64
2023/06/16 06:23:40;;;;;;;;;;;23.30;50.00;;;;;;5101436;28;19928;-63
2023/06/16 06:26:06;;;;;;;;;;;23.20;49.80;;;;;;5081850;28;19926;-64
2023/06/16 06:28:31;;;;;;;;;;;23.20;50.00;;;;;;5089871;28;19945;-64
2023/06/16 06:30:57;;;;;;;;;;;23.20;50.00;;;;;;5074544;28;20026;-63
2023/06/16 06:33:22;;;;;;;;;;;23.20;50.00;;;;;;5070669;28;19924;-64
2023/06/16 06:35:47;;;;;;;;;;;23.20;49.90;;;;;;5078353;28;19931;-63
2023/06/16 06:38:14;;;;;;;;;;;23.20;50.20;;;;;;5113034;27;20222;-63
2023/06/16 06:40:40;;;;;;;;;;;23.10;50.10;;;;;;5075594;28;20215;-63
2023/06/16 06:43:05;;;;;;;;;;;23.20;49.90;;;;;;5075003;28;20268;-63
2023/06/16 06:45:31;;;;;;;;;;;23.20;49.60;;;;;;5073954;28;19973;-64
2023/06/16 06:47:56;;;;;;;;;;;23.10;49.90;;;;;;5074284;28;19929;-64
2023/06/16 06:50:22;;;;;;;;;;;23.10;49.70;;;;;;5086861;28;20028;-64
2023/06/16 06:52:47;;;;;;;;;;;23.10;49.30;;;;;;5078032;28;19932;-64
2023/06/16 06:55:13;;;;;;;;;;;23.10;49.40;;;;;;5081059;28;19919;-64
2023/06/16 06:57:40;;;;;;;;;;;23.10;49.30;;;;;;5076460;28;20511;-64
2023/06/16 07:00:07;;;;;;;;;;;23.10;49.40;;;;;;5097808;28;19924;-63
2023/06/16 07:02:33;;;;;;;;;;;23.10;49.50;;;;;;5094427;28;20348;-70
2023/06/16 07:04:58;;;;;;;;;;;23.10;49.70;;;;;;5079399;28;19924;-64
2023/06/16 07:07:24;;;;;;;;;;;23.10;49.50;;;;;;5094190;28;19930;-64
2023/06/16 07:09:49;;;;;;;;;;;23.10;49.60;;;;;;5110619;27;19924;-64
2023/06/16 07:12:16;;;;;;;;;;;23.10;49.50;;;;;;5077467;28;19932;-65
2023/06/16 07:14:43;;;;;;;;;;;23.10;49.70;;;;;;5081896;28;19927;-64
2023/06/16 07:17:08;;;;;;;;;;;23.10;49.80;;;;;;5074150;28;19920;-63
2023/06/16 07:19:34;;;;;;;;;;;23.10;49.90;;;;;;5081738;28;19924;-63
2023/06/16 07:22:00;;;;;;;;;;;23.10;49.90;;;;;;5078013;28;19928;-63
2023/06/16 07:24:26;;;;;;;;;;;23.10;49.70;;;;;;5077426;28;19931;-62
2023/06/16 07:26:51;;;;;;;;;;;23.10;49.60;;;;;;5079093;28;19920;-64
2023/06/16 07:29:17;;;;;;;;;;;23.10;49.60;;;;;;5082528;28;20248;-64
2023/06/16 07:31:43;;;;;;;;;;;23.10;50.30;;;;;;5078224;28;20691;-63
2023/06/16 07:34:08;;;;;;;;;;;23.10;49.50;;;;;;5074937;28;20037;-64
2023/06/16 07:36:34;;;;;;;;;;;23.10;49.40;;;;;;5077239;28;19977;-62
2023/06/16 07:39:00;;;;;;;;;;;23.10;49.40;;;;;;5094534;28;19936;-62
2023/06/16 07:41:26;;;;;;;;;;;23.00;49.10;;;;;;5072223;28;19973;-63
2023/06/16 07:43:51;;;;;;;;;;;23.10;49.00;;;;;;5072573;28;19925;-63
2023/06/16 07:46:17;;;;;;;;;;;23.10;49.10;;;;;;5079091;28;19982;-62
2023/06/16 07:48:43;;;;;;;;;;;23.10;49.20;;;;;;5090952;28;20294;-62
2023/06/16 07:51:08;;;;;;;;;;;23.10;49.20;;;;;;5076817;28;19923;-61
2023/06/16 07:53:34;;;;;;;;;;;23.10;49.20;;;;;;5091571;28;19923;-63
2023/06/16 07:55:59;;;;;;;;;;;23.10;49.30;;;;;;5079112;28;19928;-61
2023/06/16 07:58:25;;;;;;;;;;;23.10;49.30;;;;;;5075625;28;20014;-62
2023/06/16 08:00:51;;;;;;;;;;;23.10;49.30;;;;;;5075322;28;19932;-62
2023/06/16 08:03:17;;;;;;;;;;;23.10;49.30;;;;;;5079061;28;19927;-62
2023/06/16 08:05:43;;;;;;;;;;;23.10;49.30;;;;;;5080383;28;20294;-62
2023/06/16 08:08:08;;;;;;;;;;;23.10;49.30;;;;;;5087728;28;19927;-63
2023/06/16 08:10:34;;;;;;;;;;;23.10;49.20;;;;;;5091921;28;19924;-62
2023/06/16 08:13:00;;;;;;;;;;;23.10;49.30;;;;;;5109215;27;19934;-63
2023/06/16 08:15:25;;;;;;;;;;;23.10;49.40;;;;;;5075719;28;20349;-62
2023/06/16 08:17:51;;;;;;;;;;;23.10;49.30;;;;;;5076240;28;19926;-62
2023/06/16 08:20:17;;;;;;;;;;;23.20;49.50;;;;;;5108079;27;19920;-61
2023/06/16 08:22:42;;;;;;;;;;;23.20;49.30;;;;;;5075636;28;19928;-60
2023/06/16 08:25:08;;;;;;;;;;;23.20;49.40;;;;;;5107926;27;19924;-62
2023/06/16 08:27:33;;;;;;;;;;;23.20;49.50;;;;;;5094651;28;19927;-61
2023/06/16 08:29:59;;;;;;;;;;;23.20;49.60;;;;;;5078448;28;20376;-63
2023/06/16 08:32:24;;;;;;;;;;;23.20;49.40;;;;;;5075860;28;19920;-61
2023/06/16 08:34:50;;;;;;;;;;;23.20;49.30;;;;;;5074854;28;20384;-62
2023/06/16 08:37:16;;;;;;;;;;;23.20;49.00;;;;;;5075028;28;19963;-62
2023/06/16 08:39:42;;;;;;;;;;;23.20;49.00;;;;;;5077081;28;20471;-62
2023/06/16 08:42:08;;;;;;;;;;;23.20;48.90;;;;;;5079426;28;19927;-62
2023/06/16 08:44:35;;;;;;;;;;;23.20;48.90;;;;;;5110382;27;19999;-62
2023/06/16 08:47:02;;;;;;;;;;;23.20;48.90;;;;;;5110046;27;19993;-61
2023/06/16 08:49:28;;;;;;;;;;;23.30;48.90;;;;;;5075338;28;19924;-65
2023/06/16 08:51:54;;;;;;;;;;;23.30;48.80;;;;;;5088432;28;19989;-61
2023/06/16 08:54:23;;;;;;;;;;;23.30;48.80;;;;;;5091355;27;20089;-62
2023/06/16 08:56:50;;;;;;;;;;;23.30;48.70;;;;;;5071077;28;20006;-62
2023/06/16 08:59:17;;;;;;;;;;;23.40;48.70;;;;;;5088624;28;19924;-62
2023/06/16 09:01:44;;;;;;;;;;;23.40;48.70;;;;;;5069425;28;19932;-61
2023/06/16 09:04:09;;;;;;;;;;;23.40;48.70;;;;;;5073706;28;19924;-65
2023/06/16 09:06:35;;;;;;;;;;;23.40;48.60;;;;;;5071417;28;19924;-62
2023/06/16 09:09:01;;;;;;;;;;;23.50;48.60;;;;;;5074352;28;19928;-63
2023/06/16 09:11:26;;;;;;;;;;;23.50;48.60;;;;;;5075914;28;20898;-62
2023/06/16 09:13:52;;;;;;;;;;;23.50;48.60;;;;;;5076009;28;20367;-62
2023/06/16 09:16:21;;;;;;;;;;;23.50;48.40;;;;;;5074087;28;19971;-62
2023/06/16 09:18:49;;;;;;;;;;;23.60;48.50;;;;;;5071507;28;19934;-62
2023/06/16 09:21:18;;;;;;;;;;;23.60;48.50;;;;;;5089368;28;19927;-62
2023/06/16 09:23:45;;;;;;;;;;;23.60;48.50;;;;;;5089759;28;20375;-63
2023/06/16 09:26:12;;;;;;;;;;;23.70;48.70;;;;;;5076187;28;19924;-61
2023/06/16 09:28:37;;;;;;;;;;;23.70;48.80;;;;;;5076707;28;19931;-62
2023/06/16 09:31:03;;;;;;;;;;;23.70;48.70;;;;;;5073587;28;19924;-63
2023/06/16 09:33:29;;;;;;;;;;;23.80;48.70;;;;;;5077767;28;19946;-63
2023/06/16 09:35:55;;;;;;;;;;;23.80;48.70;;;;;;5090655;28;19924;-62
2023/06/16 09:38:20;;;;;;;;;;;23.90;48.60;;;;;;5073803;28;19973;-66
2023/06/16 09:40:46;;;;;;;;;;;23.80;48.60;;;;;;5088199;28;19932;-62
2023/06/16 09:43:11;;;;;;;;;;;23.90;48.60;;;;;;5090513;28;20425;-62
2023/06/16 09:45:37;;;;;;;;;;;23.90;48.40;;;;;;5110472;27;19955;-65
2023/06/16 09:48:03;;;;;;;;;;;23.90;48.30;;;;;;5093059;28;19924;-62
2023/06/16 09:50:30;;;;;;;;;;;23.90;48.40;;;;;;5077486;28;19928;-62
2023/06/16 09:52:57;;;;;;;;;;;23.90;48.30;;;;;;5097899;28;19928;-63
2023/06/16 09:55:27;;;;;;;;;;;23.90;48.10;;;;;;5092786;28;19928;-63
2023/06/16 09:57:53;;;;;;;;;;;23.90;48.30;;;;;;5084854;28;19931;-65
2023/06/16 10:00:19;;;;;;;;;;;23.90;48.20;;;;;;5077782;28;20863;-64
2023/06/16 10:02:46;;;;;;;;;;;24.00;48.10;;;;;;5076451;28;19928;-63
2023/06/16 10:05:14;;;;;;;;;;;24.00;47.90;;;;;;5095371;28;19931;-61
2023/06/16 10:07:41;;;;;;;;;;;24.00;47.90;;;;;;5083582;28;19924;-63
2023/06/16 10:10:08;;;;;;;;;;;24.10;47.70;;;;;;5099168;28;19985;-62
2023/06/16 10:12:35;;;;;;;;;;;24.10;47.80;;;;;;5097343;28;20442;-62
2023/06/16 10:15:02;;;;;;;;;;;24.10;47.60;;;;;;5100859;28;20001;-62
2023/06/16 10:17:28;;;;;;;;;;;24.10;47.50;;;;;;5098243;28;20040;-62
2023/06/16 10:19:54;;;;;;;;;;;24.10;47.80;;;;;;5070611;28;19923;-63
2023/06/16 10:22:21;;;;;;;;;;;24.10;47.80;;;;;;5078818;28;20708;-62
2023/06/16 10:24:47;;;;;;;;;;;24.10;47.70;;;;;;5096366;28;20037;-62
2023/06/16 10:27:13;;;;;;;;;;;24.10;47.40;;;;;;5098248;28;20015;-62
2023/06/16 10:29:39;;;;;;;;;;;24.20;47.30;;;;;;5082185;28;20436;-62
2023/06/16 10:32:06;;;;;;;;;;;24.20;47.50;;;;;;5113398;27;19924;-62
2023/06/16 10:34:36;;;;;;;;;;;24.20;46.50;;;;;;5098640;27;20049;-62
2023/06/16 10:37:01;;;;;;;;;;;24.30;46.30;;;;;;5082569;28;19955;-62
2023/06/16 10:39:27;;;;;;;;;;;24.30;46.00;;;;;;5108318;27;20000;-62
2023/06/16 10:42:00;;;;;;;;;;;24.20;45.70;;;;;;5081773;28;19924;-63
2023/06/16 10:44:27;;;;;;;;;;;24.20;45.60;;;;;;5083354;28;19920;-62
2023/06/16 10:47:12;;;;;;;;;;;24.20;45.60;;;;;;5073352;28;19928;-62
2023/06/16 10:49:55;;;;;;;;;;;24.20;45.60;;;;;;5065921;28;19927;-61
2023/06/16 10:55:17;;;;;;;;;;;24.30;46.20;;;;;;5080797;27;20394;-60
2023/06/16 10:57:43;;;;;;;;;;;24.30;46.30;;;;;;5069311;28;20003;-59
2023/06/16 11:00:11;;;;;;;;;;;24.30;46.60;;;;;;5068447;28;19939;-59
2023/06/16 11:02:37;;;;;;;;;;;24.30;46.70;;;;;;5069983;28;19920;-59
2023/06/16 11:05:10;;;;;;;;;;;24.30;46.90;;;;;;5103696;28;19924;-61
2023/06/16 11:10:18;;;;;;;;;;;24.30;47.10;;;;;;5071220;27;19927;-61
2023/06/16 11:12:45;;;;;;;;;;;24.30;47.30;;;;;;5100972;27;19924;-60
2023/06/16 11:15:10;;;;;;;;;;;24.40;47.30;;;;;;5064131;28;19924;-61
2023/06/16 11:17:36;;;;;;;;;;;24.30;47.30;;;;;;5060132;28;19950;-61
2023/06/16 11:20:05;;;;;;;;;;;24.40;47.30;;;;;;5066961;28;20013;-61
2023/06/16 11:22:33;;;;;;;;;;;24.40;47.00;;;;;;5066694;28;19963;-61
2023/06/16 11:24:59;;;;;;;;;;;24.40;46.50;;;;;;5066517;28;20025;-61
2023/06/16 11:27:25;;;;;;;;;;;24.30;45.60;;;;;;5071092;28;19998;-61
2023/06/16 11:29:53;;;;;;;;;;;24.40;44.80;;;;;;5101626;27;19973;-61
2023/06/16 11:32:28;;;;;;;;;;;24.40;44.30;;;;;;5067362;28;20015;-62
2023/06/16 11:34:55;;;;;;;;;;;24.40;43.80;;;;;;5070836;28;19931;-62
2023/06/16 11:37:43;;;;;;;;;;;24.40;43.70;;;;;;5071073;28;19924;-62
2023/06/16 11:40:11;;;;;;;;;;;24.40;43.40;;;;;;5072664;28;19928;-64
2023/06/16 11:42:36;;;;;;;;;;;24.50;43.10;;;;;;5064962;28;20450;-62
2023/06/16 11:45:02;;;;;;;;;;;24.50;42.80;;;;;;5071740;28;20155;-63
2023/06/16 11:47:29;;;;;;;;;;;24.50;42.80;;;;;;5071975;28;19920;-63
2023/06/16 11:49:55;;;;;;;;;;;24.50;42.80;;;;;;5066236;28;19972;-62
2023/06/16 11:52:21;;;;;;;;;;;24.50;42.60;;;;;;5072347;28;19940;-64
2023/06/16 11:54:47;;;;;;;;;;;24.50;42.70;;;;;;5070076;28;20291;-64
2023/06/16 11:57:13;;;;;;;;;;;24.50;42.40;;;;;;5070073;28;19924;-64
2023/06/16 11:59:39;;;;;;;;;;;24.50;42.20;;;;;;5106569;27;19928;-64
2023/06/16 12:02:05;;;;;;;;;;;24.50;41.60;;;;;;5071995;28;20345;-61
2023/06/16 12:04:31;;;;;;;;;;;24.50;41.70;;;;;;5071724;28;20047;-62
2023/06/16 12:06:56;;;;;;;;;;;24.60;41.90;;;;;;5059088;28;19931;-61
2023/06/16 12:09:24;;;;;;;;;;;24.50;41.90;;;;;;5095745;28;19925;-61
2023/06/16 12:11:50;;;;;;;;;;;24.60;42.00;;;;;;5067038;28;20008;-61
2023/06/16 12:14:18;;;;;;;;;;;24.50;42.00;;;;;;5070967;28;20424;-61
2023/06/16 12:16:44;;;;;;;;;;;24.60;42.00;;;;;;5067046;28;19927;-61
2023/06/16 12:19:09;;;;;;;;;;;24.50;42.00;;;;;;5066012;28;19920;-62
2023/06/16 12:21:35;;;;;;;;;;;24.50;42.10;;;;;;5051326;28;19927;-61
2023/06/16 12:24:02;;;;;;;;;;;24.60;42.30;;;;;;5083482;28;19931;-63
2023/06/16 12:26:43;;;;;;;;;;;24.60;42.30;;;;;;5082674;28;20526;-63
2023/06/16 12:29:10;;;;;;;;;;;24.60;42.50;;;;;;5084764;27;19936;-63
2023/06/16 12:31:35;;;;;;;;;;;24.60;42.20;;;;;;5054376;28;20272;-63
2023/06/16 12:34:01;;;;;;;;;;;24.60;42.20;;;;;;5055363;28;19970;-63
2023/06/16 12:36:27;;;;;;;;;;;24.60;42.10;;;;;;5057050;28;20446;-63
2023/06/16 12:38:54;;;;;;;;;;;24.70;41.70;;;;;;5054094;28;20458;-60
2023/06/16 12:41:19;;;;;;;;;;;24.70;41.70;;;;;;5085320;28;20007;-61
2023/06/16 12:43:46;;;;;;;;;;;24.70;41.60;;;;;;5053131;28;20023;-60
2023/06/16 12:46:12;;;;;;;;;;;24.70;41.50;;;;;;5058746;28;19925;-62
2023/06/16 12:48:37;;;;;;;;;;;24.70;41.60;;;;;;5052703;28;19925;-60
2023/06/16 12:51:03;;;;;;;;;;;24.70;41.60;;;;;;5048763;28;19925;-62
2023/06/16 12:53:28;;;;;;;;;;;24.70;41.60;;;;;;5069922;28;19925;-61
2023/06/16 12:55:54;;;;;;;;;;;24.80;41.80;;;;;;5054856;28;19924;-60
2023/06/16 12:58:19;;;;;;;;;;;24.80;41.70;;;;;;5046531;28;20036;-61
2023/06/16 13:00:46;;;;;;;;;;;24.70;41.80;;;;;;5042624;28;19921;-61
2023/06/16 13:03:11;;;;;;;;;;;24.80;41.90;;;;;;5047154;28;19974;-62
2023/06/16 13:29:59;;;;;;;;;;;25.00;40.50;;;;;;5041930;28;19931;-61
2023/06/16 13:32:25;;;;;;;;;;;25.00;40.50;;;;;;5055498;28;19921;-61
2023/06/16 13:34:51;;;;;;;;;;;25.00;40.50;;;;;;5037345;28;19925;-61
2023/06/16 13:37:16;;;;;;;;;;;25.10;40.40;;;;;;5036414;28;19921;-61
2023/06/16 13:39:42;;;;;;;;;;;25.00;40.40;;;;;;5037026;28;19920;-61
2023/06/16 13:42:07;;;;;;;;;;;25.10;40.20;;;;;;5036622;28;19920;-61
2023/06/16 13:44:33;;;;;;;;;;;25.10;40.00;;;;;;5070058;28;19981;-61
2023/06/16 13:46:58;;;;;;;;;;;25.10;39.80;;;;;;5054851;28;19929;-61
2023/06/16 13:49:24;;;;;;;;;;;25.10;39.80;;;;;;5039836;28;20403;-61
2023/06/16 13:51:49;;;;;;;;;;;25.10;39.60;;;;;;5058401;28;19981;-60
2023/06/16 13:54:15;;;;;;;;;;;25.10;39.80;;;;;;5054867;28;20387;-60
2023/06/16 13:56:41;;;;;;;;;;;25.20;39.30;;;;;;5058370;28;19924;-62
2023/06/16 13:59:06;;;;;;;;;;;25.10;39.40;;;;;;5052138;28;19936;-62
2023/06/16 14:01:32;;;;;;;;;;;25.20;39.30;;;;;;5053547;28;20294;-62
2023/06/16 14:03:57;;;;;;;;;;;25.20;39.20;;;;;;5032535;28;19974;-60
2023/06/16 14:06:23;;;;;;;;;;;25.20;39.30;;;;;;5066397;28;19995;-62
2023/06/16 14:08:51;;;;;;;;;;;25.20;39.50;;;;;;5056257;28;19959;-64
2023/06/16 14:11:17;;;;;;;;;;;25.20;39.60;;;;;;5036270;28;20372;-63
2023/06/16 14:13:44;;;;;;;;;;;25.20;39.50;;;;;;5067321;28;19921;-64
2023/06/16 14:16:09;;;;;;;;;;;25.30;39.50;;;;;;5035889;28;19920;-64
2023/06/16 14:18:35;;;;;;;;;;;25.30;39.20;;;;;;5063470;28;19943;-64
2023/06/16 14:21:00;;;;;;;;;;;25.30;39.00;;;;;;5036881;28;19994;-63
2023/06/16 14:23:26;;;;;;;;;;;25.30;38.40;;;;;;5039524;28;19920;-63
2023/06/16 14:25:54;;;;;;;;;;;25.30;38.60;;;;;;5054860;28;19920;-62
2023/06/16 14:28:20;;;;;;;;;;;25.20;38.70;;;;;;5074959;28;19924;-63
2023/06/16 14:30:46;;;;;;;;;;;25.30;39.70;;;;;;5063470;28;19924;-63
2023/06/16 14:33:11;;;;;;;;;;;25.20;38.90;;;;;;5092602;28;19927;-62
2023/06/16 14:35:37;;;;;;;;;;;25.20;39.10;;;;;;5060067;28;19928;-63
2023/06/16 14:38:02;;;;;;;;;;;25.20;39.20;;;;;;5058184;28;20371;-63
2023/06/16 14:40:27;;;;;;;;;;;25.20;39.30;;;;;;5090412;28;19924;-63
2023/06/16 14:42:53;;;;;;;;;;;25.20;39.30;;;;;;5091452;28;19943;-63
2023/06/16 14:45:19;;;;;;;;;;;25.20;39.30;;;;;;5084544;28;20520;-63